Time;durP1;ratioP1;P1;durP2;ratioP2;P2;SDS_P1;SDS_P2;PMS_P1;PMS_P2;Temp;Humidity;BMP_temperature;BMP_pressure;BME280_temperature;BME280_humidity;BME280_pressure;Samples;Min_cycle;Max_cycle;Signal;HPM_P1;HPM_P2
2022/11/16 00:01:20;;;;;;;12.55;6.38;;;;;;;;;;5101304;28;20497;-78
2022/11/16 00:03:46;;;;;;;13.07;6.15;;;;;;;;;;5096150;28;20520;-75
2022/11/16 00:06:13;;;;;;;15.95;6.38;;;;;;;;;;5098049;28;20048;-79
2022/11/16 00:08:41;;;;;;;11.82;5.80;;;;;;;;;;5095395;28;20499;-77
2022/11/16 00:11:07;;;;;;;15.07;6.38;;;;;;;;;;5094231;28;20139;-78
2022/11/16 00:13:34;;;;;;;12.73;6.07;;;;;;;;;;5090119;28;20713;-76
2022/11/16 00:16:00;;;;;;;11.13;5.93;;;;;;;;;;5093334;28;20447;-79
2022/11/16 00:18:27;;;;;;;14.60;5.88;;;;;;;;;;5094338;28;20054;-78
2022/11/16 00:20:54;;;;;;;15.75;5.50;;;;;;;;;;5091401;28;20047;-77
2022/11/16 00:23:21;;;;;;;11.68;5.80;;;;;;;;;;5090888;28;20052;-77
2022/11/16 00:25:47;;;;;;;11.95;5.28;;;;;;;;;;5092705;28;20048;-77
2022/11/16 00:28:13;;;;;;;16.30;5.60;;;;;;;;;;5091223;28;20048;-78
2022/11/16 00:30:40;;;;;;;14.68;5.50;;;;;;;;;;5093387;28;20043;-79
2022/11/16 00:33:07;;;;;;;11.90;5.55;;;;;;;;;;5100650;28;20063;-79
2022/11/16 00:35:37;;;;;;;10.45;5.60;;;;;;;;;;5103067;28;20048;-79
2022/11/16 00:38:04;;;;;;;13.43;5.82;;;;;;;;;;5093575;28;20051;-79
2022/11/16 00:40:30;;;;;;;15.65;5.65;;;;;;;;;;5093649;28;20048;-80
2022/11/16 00:42:56;;;;;;;10.63;5.55;;;;;;;;;;5091379;28;20048;-78
2022/11/16 00:45:23;;;;;;;9.50;5.35;;;;;;;;;;5092799;28;20416;-79
2022/11/16 00:47:49;;;;;;;10.68;4.80;;;;;;;;;;5094430;28;20044;-79
2022/11/16 00:50:16;;;;;;;13.60;5.53;;;;;;;;;;5097854;28;20445;-78
2022/11/16 00:52:42;;;;;;;10.57;5.10;;;;;;;;;;5091958;28;20502;-78
2022/11/16 00:55:08;;;;;;;10.55;4.95;;;;;;;;;;5091551;28;20055;-77
2022/11/16 00:57:35;;;;;;;10.07;5.10;;;;;;;;;;5092596;28;20058;-79
2022/11/16 01:00:03;;;;;;;11.82;5.93;;;;;;;;;;5091228;28;20107;-76
2022/11/16 01:02:29;;;;;;;12.27;5.78;;;;;;;;;;5091276;28;20051;-77
2022/11/16 01:04:55;;;;;;;10.90;5.38;;;;;;;;;;5091248;28;20059;-78
2022/11/16 01:07:22;;;;;;;12.25;5.90;;;;;;;;;;5088395;28;20056;-78
2022/11/16 01:09:48;;;;;;;11.18;5.78;;;;;;;;;;5089282;28;20056;-75
2022/11/16 01:12:16;;;;;;;11.55;5.20;;;;;;;;;;5089769;28;20060;-76
2022/11/16 01:14:43;;;;;;;12.85;6.30;;;;;;;;;;5093058;28;20391;-76
2022/11/16 01:17:10;;;;;;;10.82;5.65;;;;;;;;;;5096715;28;20082;-77
2022/11/16 01:19:36;;;;;;;13.95;5.63;;;;;;;;;;5091932;28;20522;-77
2022/11/16 01:22:03;;;;;;;11.15;5.88;;;;;;;;;;5091887;28;20043;-77
2022/11/16 01:24:29;;;;;;;9.80;5.45;;;;;;;;;;5091066;28;20109;-78
2022/11/16 01:26:57;;;;;;;13.23;5.32;;;;;;;;;;5091289;28;20054;-77
2022/11/16 01:29:24;;;;;;;10.43;5.72;;;;;;;;;;5091942;28;20075;-79
2022/11/16 01:31:51;;;;;;;13.40;5.97;;;;;;;;;;5091134;28;20415;-79
2022/11/16 01:34:17;;;;;;;12.15;6.05;;;;;;;;;;5090560;28;20059;-77
2022/11/16 01:36:43;;;;;;;13.27;6.15;;;;;;;;;;5091399;28;20040;-79
2022/11/16 01:39:11;;;;;;;12.63;5.68;;;;;;;;;;5091334;28;20397;-79
2022/11/16 01:41:38;;;;;;;11.55;5.75;;;;;;;;;;5090505;28;20044;-78
2022/11/16 01:44:25;;;;;;;12.20;5.65;;;;;;;;;;5089106;28;20044;-77
2022/11/16 01:46:51;;;;;;;11.05;5.88;;;;;;;;;;5090284;28;20074;-77
2022/11/16 01:49:21;;;;;;;9.70;5.43;;;;;;;;;;5087926;28;20090;-78
2022/11/16 01:51:56;;;;;;;12.18;5.97;;;;;;;;;;5070576;28;20045;-78
2022/11/16 01:54:22;;;;;;;13.27;6.30;;;;;;;;;;5069723;28;20140;-79
2022/11/16 01:56:49;;;;;;;10.25;5.53;;;;;;;;;;5071287;28;20056;-77
2022/11/16 01:59:16;;;;;;;14.98;6.15;;;;;;;;;;5052558;28;20130;-77
2022/11/16 02:01:43;;;;;;;14.35;6.10;;;;;;;;;;5070987;28;20056;-78
2022/11/16 02:04:10;;;;;;;11.68;5.82;;;;;;;;;;5091322;28;20048;-79
2022/11/16 02:06:55;;;;;;;13.50;5.78;;;;;;;;;;5090776;28;20054;-78
2022/11/16 02:12:14;;;;;;;10.77;5.50;;;;;;;;;;5090995;28;20138;-75
2022/11/16 02:14:47;;;;;;;17.25;5.97;;;;;;;;;;5083057;28;20122;-77
2022/11/16 02:17:16;;;;;;;12.13;5.82;;;;;;;;;;5073296;28;20126;-78
2022/11/16 02:20:01;;;;;;;12.15;5.90;;;;;;;;;;5090767;28;20047;-78
2022/11/16 02:22:56;;;;;;;11.23;5.93;;;;;;;;;;5090542;28;20055;-79
2022/11/16 02:25:23;;;;;;;10.70;4.80;;;;;;;;;;5091792;28;20294;-78
2022/11/16 02:28:09;;;;;;;11.18;5.35;;;;;;;;;;5091501;28;20392;-78
2022/11/16 02:30:39;;;;;;;11.35;5.10;;;;;;;;;;5073142;28;20062;-78
2022/11/16 02:33:10;;;;;;;17.50;5.50;;;;;;;;;;5091462;28;20048;-78
2022/11/16 02:35:41;;;;;;;11.88;5.57;;;;;;;;;;5073855;28;20047;-79
2022/11/16 02:38:13;;;;;;;11.02;5.22;;;;;;;;;;5091825;28;20064;-79
2022/11/16 02:40:42;;;;;;;10.23;4.35;;;;;;;;;;5091810;28;20484;-79
2022/11/16 02:43:11;;;;;;;11.68;4.53;;;;;;;;;;5072854;28;20087;-79
2022/11/16 02:45:46;;;;;;;7.75;4.35;;;;;;;;;;5098625;28;20051;-80
2022/11/16 02:48:18;;;;;;;10.35;4.28;;;;;;;;;;5099542;28;20673;-79
2022/11/16 02:50:45;;;;;;;7.80;4.45;;;;;;;;;;5098241;28;20115;-78
2022/11/16 02:53:12;;;;;;;7.88;4.35;;;;;;;;;;5097034;28;20131;-79
2022/11/16 02:55:38;;;;;;;7.90;3.88;;;;;;;;;;5097678;28;20044;-78
2022/11/16 02:58:05;;;;;;;6.95;3.13;;;;;;;;;;5096753;28;20496;-80
2022/11/16 03:00:42;;;;;;;10.32;3.38;;;;;;;;;;5098609;28;20139;-80
2022/11/16 03:03:11;;;;;;;6.65;3.33;;;;;;;;;;5106793;28;20446;-79
2022/11/16 03:05:41;;;;;;;6.80;3.25;;;;;;;;;;5099538;28;20067;-79
2022/11/16 03:08:26;;;;;;;6.78;3.28;;;;;;;;;;5098459;28;20059;-79
2022/11/16 03:13:40;;;;;;;6.50;3.30;;;;;;;;;;5095076;28;20075;-76
2022/11/16 03:16:13;;;;;;;5.95;3.20;;;;;;;;;;5096600;28;20047;-78
2022/11/16 03:18:40;;;;;;;6.97;3.40;;;;;;;;;;5097856;28;20051;-78
2022/11/16 03:21:14;;;;;;;6.20;3.35;;;;;;;;;;5097017;28;20135;-78
2022/11/16 03:23:40;;;;;;;7.57;3.22;;;;;;;;;;5095877;28;20046;-78
2022/11/16 03:26:09;;;;;;;6.15;3.30;;;;;;;;;;5084933;28;20082;-77
2022/11/16 03:28:40;;;;;;;7.05;3.03;;;;;;;;;;5095857;28;20048;-77
2022/11/16 03:31:16;;;;;;;7.00;3.33;;;;;;;;;;5078572;28;20043;-77
2022/11/16 03:33:44;;;;;;;5.60;3.03;;;;;;;;;;5096426;28;20048;-77
2022/11/16 03:36:16;;;;;;;5.07;3.00;;;;;;;;;;5096890;28;20059;-78
2022/11/16 03:38:44;;;;;;;5.05;3.08;;;;;;;;;;5096819;28;20104;-77
2022/11/16 03:41:11;;;;;;;5.32;3.08;;;;;;;;;;5098175;28;20044;-77
2022/11/16 03:43:39;;;;;;;4.25;2.78;;;;;;;;;;5094202;28;20515;-77
2022/11/16 03:46:05;;;;;;;5.38;2.80;;;;;;;;;;5097031;28;20048;-77
2022/11/16 03:48:35;;;;;;;5.20;2.95;;;;;;;;;;5097321;28;20063;-78
2022/11/16 03:51:03;;;;;;;5.55;3.10;;;;;;;;;;5097427;28;20048;-77
2022/11/16 03:53:29;;;;;;;6.80;3.30;;;;;;;;;;5096128;28;20060;-76
2022/11/16 03:55:56;;;;;;;5.15;2.80;;;;;;;;;;5076983;28;20143;-79
2022/11/16 03:58:22;;;;;;;5.57;3.10;;;;;;;;;;5076299;28;20047;-78
2022/11/16 04:00:48;;;;;;;4.35;2.95;;;;;;;;;;5095062;28;20044;-79
2022/11/16 04:03:15;;;;;;;5.88;2.97;;;;;;;;;;5093571;28;20452;-78
2022/11/16 04:25:14;;;;;;;5.25;2.95;;;;;;;;;;5091938;28;20055;-79
2022/11/16 04:37:47;;;;;;;8.43;3.45;;;;;;;;;;5091982;28;20048;-78
2022/11/16 04:38:46;;;;;;;5.20;3.13;;;;;;;;;;5092416;28;20126;-78
2022/11/16 04:42:13;;;;;;;6.82;3.47;;;;;;;;;;5092564;28;20048;-77
2022/11/16 04:43:58;;;;;;;6.78;3.40;;;;;;;;;;5090029;28;20078;-78
2022/11/16 04:49:10;;;;;;;6.37;3.67;;;;;;;;;;5092144;28;20063;-77
2022/11/16 04:51:36;;;;;;;6.60;3.45;;;;;;;;;;5092765;28;20047;-77
2022/11/16 04:54:03;;;;;;;6.72;3.42;;;;;;;;;;5090287;28;20055;-78
2022/11/16 04:56:29;;;;;;;6.93;3.45;;;;;;;;;;5092211;28;20048;-77
2022/11/16 04:58:56;;;;;;;6.30;3.38;;;;;;;;;;5093707;28;20563;-78
2022/11/16 05:02:06;;;;;;;6.47;3.53;;;;;;;;;;5096670;28;20130;-79
2022/11/16 05:04:08;;;;;;;6.43;3.20;;;;;;;;;;5093105;28;20112;-78
2022/11/16 05:06:35;;;;;;;7.55;3.70;;;;;;;;;;5094806;28;20056;-78
2022/11/16 05:09:01;;;;;;;7.25;3.88;;;;;;;;;;5092511;28;20539;-78
2022/11/16 05:11:28;;;;;;;7.78;3.90;;;;;;;;;;5095738;28;20059;-79
2022/11/16 05:13:54;;;;;;;7.13;3.95;;;;;;;;;;5092289;28;20056;-79
2022/11/16 05:16:21;;;;;;;7.10;3.67;;;;;;;;;;5094292;28;20048;-79
2022/11/16 05:20:59;;;;;;;7.47;3.58;;;;;;;;;;5075651;28;20044;-78
2022/11/16 05:21:33;;;;;;;9.25;3.92;;;;;;;;;;5093490;28;20044;-79
2022/11/16 05:26:45;;;;;;;5.80;2.80;;;;;;;;;;5097008;28;20048;-78
2022/11/16 05:29:12;;;;;;;7.85;3.88;;;;;;;;;;5094621;28;20446;-79
2022/11/16 05:31:38;;;;;;;10.30;4.10;;;;;;;;;;5096826;28;20058;-79
2022/11/16 05:34:07;;;;;;;7.18;3.75;;;;;;;;;;5096518;28;20492;-78
2022/11/16 05:36:33;;;;;;;7.25;3.63;;;;;;;;;;5100463;28;20131;-79
2022/11/16 05:39:00;;;;;;;8.75;4.25;;;;;;;;;;5100440;28;20090;-78
2022/11/16 05:41:26;;;;;;;5.78;3.38;;;;;;;;;;5095634;28;20067;-77
2022/11/16 05:43:54;;;;;;;6.82;3.70;;;;;;;;;;5089879;28;20044;-77
2022/11/16 05:46:20;;;;;;;7.70;3.80;;;;;;;;;;5090775;28;20127;-76
2022/11/16 05:48:48;;;;;;;9.45;3.83;;;;;;;;;;5092026;28;20062;-78
2022/11/16 05:51:14;;;;;;;7.78;3.80;;;;;;;;;;5086126;28;20169;-77
2022/11/16 05:53:42;;;;;;;6.72;3.40;;;;;;;;;;5091570;28;20044;-78
2022/11/16 05:56:09;;;;;;;7.88;3.90;;;;;;;;;;5091142;28;20112;-77
2022/11/16 05:58:36;;;;;;;6.90;3.65;;;;;;;;;;5090944;28;20508;-77
2022/11/16 06:01:02;;;;;;;8.20;4.00;;;;;;;;;;5091968;28;20066;-79
2022/11/16 06:03:29;;;;;;;6.32;3.60;;;;;;;;;;5093234;28;20069;-79
2022/11/16 06:05:56;;;;;;;8.23;3.95;;;;;;;;;;5087974;28;20117;-80
2022/11/16 06:08:23;;;;;;;7.40;4.10;;;;;;;;;;5090603;28;20051;-77
2022/11/16 06:10:49;;;;;;;7.55;3.72;;;;;;;;;;5082046;28;20052;-78
2022/11/16 06:13:16;;;;;;;7.38;3.70;;;;;;;;;;5069087;28;20507;-78
2022/11/16 06:15:42;;;;;;;9.38;3.97;;;;;;;;;;5069952;28;20063;-79
2022/11/16 06:18:15;;;;;;;7.70;3.78;;;;;;;;;;5071839;28;20135;-78
2022/11/16 06:20:41;;;;;;;7.43;3.55;;;;;;;;;;5080336;28;20059;-79
2022/11/16 06:23:08;;;;;;;8.85;3.80;;;;;;;;;;5090866;28;20050;-79
2022/11/16 06:25:36;;;;;;;10.30;4.57;;;;;;;;;;5072807;28;20562;-79
2022/11/16 06:28:03;;;;;;;8.00;4.20;;;;;;;;;;5090554;28;20399;-79
2022/11/16 06:30:33;;;;;;;9.18;3.90;;;;;;;;;;5091890;28;20054;-79
2022/11/16 06:33:00;;;;;;;8.05;3.95;;;;;;;;;;5073461;28;20051;-79
2022/11/16 06:35:26;;;;;;;7.20;3.88;;;;;;;;;;5090826;28;20050;-78
2022/11/16 06:37:52;;;;;;;7.35;3.78;;;;;;;;;;5091798;28;20143;-78
2022/11/16 06:40:19;;;;;;;6.97;3.78;;;;;;;;;;5092097;28;20072;-78
2022/11/16 06:42:45;;;;;;;6.18;3.90;;;;;;;;;;5090739;28;20044;-79
2022/11/16 06:45:12;;;;;;;8.98;4.22;;;;;;;;;;5090791;28;20151;-78
2022/11/16 06:47:38;;;;;;;12.13;5.47;;;;;;;;;;5092440;28;20139;-78
2022/11/16 06:50:05;;;;;;;12.55;5.05;;;;;;;;;;5092221;28;20484;-79
2022/11/16 06:52:31;;;;;;;11.30;4.53;;;;;;;;;;5091715;28;20451;-80
2022/11/16 06:54:58;;;;;;;8.27;4.05;;;;;;;;;;5073157;28;20583;-78
2022/11/16 06:57:24;;;;;;;7.97;3.47;;;;;;;;;;5091243;28;20044;-78
2022/11/16 06:59:50;;;;;;;8.27;3.85;;;;;;;;;;5091831;28;20052;-79
2022/11/16 07:02:20;;;;;;;9.75;3.97;;;;;;;;;;5089990;28;20067;-78
2022/11/16 07:04:46;;;;;;;7.05;3.45;;;;;;;;;;5090923;28;20135;-78
2022/11/16 07:07:14;;;;;;;7.22;3.85;;;;;;;;;;5092869;28;20044;-76
2022/11/16 07:09:43;;;;;;;7.68;3.47;;;;;;;;;;5092624;28;20403;-78
2022/11/16 07:12:09;;;;;;;9.27;3.80;;;;;;;;;;5092624;28;20044;-77
2022/11/16 07:14:36;;;;;;;8.05;4.07;;;;;;;;;;5073647;28;20050;-79
2022/11/16 07:17:03;;;;;;;7.88;4.10;;;;;;;;;;5093813;28;20051;-78
2022/11/16 07:19:35;;;;;;;6.50;3.72;;;;;;;;;;5091849;28;20040;-77
2022/11/16 07:22:03;;;;;;;7.95;4.07;;;;;;;;;;5075831;28;20042;-77
2022/11/16 07:24:29;;;;;;;8.80;4.15;;;;;;;;;;5086167;28;20044;-75
2022/11/16 07:26:56;;;;;;;7.60;4.10;;;;;;;;;;5087794;28;20044;-76
2022/11/16 07:29:23;;;;;;;6.53;3.67;;;;;;;;;;5088014;28;20538;-76
2022/11/16 07:31:49;;;;;;;9.18;4.38;;;;;;;;;;5093555;28;20147;-75
2022/11/16 07:34:16;;;;;;;9.70;4.30;;;;;;;;;;5073213;28;20159;-79
2022/11/16 07:36:43;;;;;;;8.07;4.35;;;;;;;;;;5091609;28;20610;-78
2022/11/16 07:39:09;;;;;;;10.93;4.88;;;;;;;;;;5071874;28;20108;-79
2022/11/16 07:41:38;;;;;;;8.27;4.20;;;;;;;;;;5093146;28;20115;-77
2022/11/16 07:44:05;;;;;;;8.05;4.15;;;;;;;;;;5089256;28;20044;-79
2022/11/16 07:46:37;;;;;;;8.68;3.90;;;;;;;;;;5091924;28;20439;-77
2022/11/16 07:49:13;;;;;;;6.82;3.20;;;;;;;;;;5089199;28;20136;-78
2022/11/16 07:51:40;;;;;;;8.48;3.63;;;;;;;;;;5091822;28;20360;-77
2022/11/16 07:54:07;;;;;;;6.85;3.80;;;;;;;;;;5091887;28;20044;-78
2022/11/16 07:56:33;;;;;;;7.13;4.07;;;;;;;;;;5091524;28;20118;-78
2022/11/16 07:59:00;;;;;;;8.23;3.92;;;;;;;;;;5091375;28;20055;-76
2022/11/16 08:01:27;;;;;;;7.00;3.40;;;;;;;;;;5075843;28;20070;-78
2022/11/16 08:03:53;;;;;;;7.30;3.65;;;;;;;;;;5085982;28;20048;-77
2022/11/16 08:06:22;;;;;;;7.38;3.78;;;;;;;;;;5089569;28;20050;-75
2022/11/16 08:08:48;;;;;;;6.78;3.88;;;;;;;;;;5087707;28;20059;-77
2022/11/16 08:11:23;;;;;;;6.60;3.55;;;;;;;;;;5086278;28;20047;-78
2022/11/16 08:13:49;;;;;;;7.38;4.03;;;;;;;;;;5088146;28;20087;-76
2022/11/16 08:16:17;;;;;;;7.45;4.10;;;;;;;;;;5087950;28;20051;-77
2022/11/16 08:18:44;;;;;;;10.05;5.03;;;;;;;;;;5073672;28;20040;-76
2022/11/16 08:21:11;;;;;;;7.90;4.10;;;;;;;;;;5075907;28;20040;-79
2022/11/16 08:23:39;;;;;;;6.53;3.85;;;;;;;;;;5091899;28;20411;-78
2022/11/16 08:26:09;;;;;;;7.72;3.85;;;;;;;;;;5094996;28;20135;-78
2022/11/16 08:28:36;;;;;;;10.23;4.20;;;;;;;;;;5094906;28;20040;-78
2022/11/16 08:31:16;;;;;;;9.55;4.40;;;;;;;;;;5094268;28;20059;-78
2022/11/16 08:33:43;;;;;;;7.35;4.28;;;;;;;;;;5093087;28;20104;-77
2022/11/16 08:36:11;;;;;;;9.63;4.55;;;;;;;;;;5091844;28;20659;-78
2022/11/16 08:38:39;;;;;;;7.28;4.30;;;;;;;;;;5092029;28;20055;-78
2022/11/16 08:41:06;;;;;;;9.00;4.18;;;;;;;;;;5092696;28;20044;-77
2022/11/16 08:43:33;;;;;;;8.55;4.90;;;;;;;;;;5090130;28;20048;-78
2022/11/16 08:45:59;;;;;;;7.75;4.07;;;;;;;;;;5092128;28;20041;-78
2022/11/16 08:48:26;;;;;;;9.95;4.80;;;;;;;;;;5093297;28;20047;-79
2022/11/16 08:50:52;;;;;;;8.35;4.60;;;;;;;;;;5092397;28;20079;-80
2022/11/16 08:53:39;;;;;;;9.98;4.90;;;;;;;;;;5090644;28;20439;-78
2022/11/16 08:56:10;;;;;;;11.52;5.82;;;;;;;;;;5093162;28;20135;-77
2022/11/16 08:58:37;;;;;;;10.57;4.47;;;;;;;;;;5091829;28;20531;-77
2022/11/16 09:01:08;;;;;;;11.23;5.85;;;;;;;;;;5092473;28;20070;-76
2022/11/16 09:03:36;;;;;;;12.68;6.13;;;;;;;;;;5074771;28;20046;-78
2022/11/16 09:06:03;;;;;;;16.67;6.93;;;;;;;;;;5094922;28;20086;-78
2022/11/16 09:08:30;;;;;;;16.40;7.28;;;;;;;;;;5089826;28;20048;-75
2022/11/16 09:10:57;;;;;;;11.68;6.35;;;;;;;;;;5094890;28;20112;-80
2022/11/16 09:13:24;;;;;;;7.72;4.47;;;;;;;;;;5092578;28;20052;-78
2022/11/16 09:15:57;;;;;;;13.48;5.05;;;;;;;;;;5094657;28;20315;-78
2022/11/16 09:18:24;;;;;;;12.07;4.88;;;;;;;;;;5076903;28;20044;-79
2022/11/16 09:20:50;;;;;;;8.18;4.65;;;;;;;;;;5074425;28;20083;-79
2022/11/16 09:23:17;;;;;;;8.23;4.40;;;;;;;;;;5094543;28;20054;-79
2022/11/16 09:25:50;;;;;;;8.25;4.38;;;;;;;;;;5080515;28;20048;-79
2022/11/16 09:28:17;;;;;;;8.80;4.35;;;;;;;;;;5082075;28;20090;-78
2022/11/16 09:30:44;;;;;;;10.10;4.65;;;;;;;;;;5098116;28;20052;-79
2022/11/16 09:33:11;;;;;;;10.63;4.78;;;;;;;;;;5095957;28;20044;-78
2022/11/16 09:35:37;;;;;;;10.20;4.53;;;;;;;;;;5081653;28;20051;-78
2022/11/16 09:38:04;;;;;;;8.40;4.47;;;;;;;;;;5082875;28;20055;-80
2022/11/16 09:40:35;;;;;;;8.50;4.68;;;;;;;;;;5099938;28;20040;-77
2022/11/16 09:43:01;;;;;;;15.20;7.93;;;;;;;;;;5094541;28;20142;-78
2022/11/16 09:45:40;;;;;;;11.10;6.45;;;;;;;;;;5098106;28;20552;-77
2022/11/16 09:48:10;;;;;;;10.68;5.75;;;;;;;;;;5099080;28;20139;-77
2022/11/16 09:50:45;;;;;;;11.30;5.75;;;;;;;;;;5099754;28;20593;-77
2022/11/16 09:53:12;;;;;;;7.57;4.57;;;;;;;;;;5095284;28;20087;-80
2022/11/16 09:55:46;;;;;;;6.65;3.92;;;;;;;;;;5093130;28;20050;-80
2022/11/16 09:58:16;;;;;;;7.18;3.92;;;;;;;;;;5091883;28;20048;-81
2022/11/16 10:00:45;;;;;;;6.78;3.65;;;;;;;;;;5092352;28;20071;-80
2022/11/16 10:03:12;;;;;;;6.15;3.63;;;;;;;;;;5092303;28;20057;-79
2022/11/16 10:05:44;;;;;;;7.18;3.40;;;;;;;;;;5091655;28;20055;-80
2022/11/16 10:08:23;;;;;;;5.55;3.30;;;;;;;;;;5093146;28;20052;-80
2022/11/16 10:10:57;;;;;;;8.27;2.85;;;;;;;;;;5093739;28;20048;-79
2022/11/16 10:13:44;;;;;;;4.88;2.85;;;;;;;;;;5093133;28;20081;-80
2022/11/16 10:16:15;;;;;;;5.82;2.97;;;;;;;;;;5061775;28;20053;-79
2022/11/16 10:18:42;;;;;;;4.40;3.00;;;;;;;;;;5073299;28;20050;-80
2022/11/16 10:21:08;;;;;;;6.10;2.78;;;;;;;;;;5069971;28;20048;-80
2022/11/16 10:23:50;;;;;;;4.65;3.00;;;;;;;;;;5070809;28;20392;-76
2022/11/16 10:26:22;;;;;;;5.15;2.90;;;;;;;;;;5091266;28;20125;-78
2022/11/16 10:28:55;;;;;;;6.93;2.90;;;;;;;;;;5090660;28;20048;-79
2022/11/16 10:31:22;;;;;;;5.55;2.90;;;;;;;;;;5106799;28;20048;-80
2022/11/16 10:33:49;;;;;;;5.75;2.95;;;;;;;;;;5104466;28;20103;-80
2022/11/16 10:36:16;;;;;;;4.72;2.85;;;;;;;;;;5091157;28;20126;-79
2022/11/16 10:38:43;;;;;;;4.18;2.75;;;;;;;;;;5091824;28;20058;-79
2022/11/16 10:41:22;;;;;;;5.65;2.90;;;;;;;;;;5092497;28;20052;-80
2022/11/16 10:43:48;;;;;;;5.70;2.65;;;;;;;;;;5088521;28;20043;-80
2022/11/16 10:46:24;;;;;;;4.35;2.65;;;;;;;;;;5090306;28;20039;-80
2022/11/16 10:48:53;;;;;;;5.80;2.58;;;;;;;;;;5072139;28;20084;-80
2022/11/16 10:51:19;;;;;;;4.75;2.92;;;;;;;;;;5092300;28;20090;-80
2022/11/16 10:53:46;;;;;;;5.00;3.00;;;;;;;;;;5091263;28;20054;-80
2022/11/16 10:56:20;;;;;;;4.65;2.88;;;;;;;;;;5095348;28;20567;-80
2022/11/16 10:58:54;;;;;;;4.63;2.88;;;;;;;;;;5094728;28;20400;-80
2022/11/16 11:01:26;;;;;;;7.72;2.90;;;;;;;;;;5082594;28;20079;-79
2022/11/16 11:03:52;;;;;;;5.40;2.55;;;;;;;;;;5094453;28;20391;-79
2022/11/16 11:06:21;;;;;;;3.92;2.60;;;;;;;;;;5097000;28;20070;-79
2022/11/16 11:08:48;;;;;;;5.95;2.90;;;;;;;;;;5091756;28;20464;-81
2022/11/16 11:14:11;;;;;;;4.50;2.67;;;;;;;;;;5078872;28;20624;-81
2022/11/16 11:16:40;;;;;;;4.88;3.10;;;;;;;;;;5100478;28;20047;-82
2022/11/16 11:19:17;;;;;;;4.68;2.75;;;;;;;;;;5089277;28;20048;-80
2022/11/16 11:21:43;;;;;;;5.03;2.85;;;;;;;;;;5081256;28;20048;-80
2022/11/16 11:24:17;;;;;;;8.43;3.20;;;;;;;;;;5103742;28;20043;-80
2022/11/16 11:27:03;;;;;;;4.47;2.63;;;;;;;;;;5100748;28;20048;-80
2022/11/16 11:29:31;;;;;;;5.43;3.28;;;;;;;;;;5102984;28;20054;-80
2022/11/16 11:32:05;;;;;;;7.32;3.33;;;;;;;;;;5101784;28;20139;-80
2022/11/16 11:34:38;;;;;;;7.28;3.45;;;;;;;;;;5096403;28;20416;-80
2022/11/16 11:37:10;;;;;;;5.60;3.42;;;;;;;;;;5081551;28;20107;-80
2022/11/16 11:39:36;;;;;;;7.05;3.78;;;;;;;;;;5104494;28;20061;-81
2022/11/16 11:42:21;;;;;;;11.90;5.68;;;;;;;;;;5092056;28;20048;-80
2022/11/16 11:44:57;;;;;;;15.05;8.18;;;;;;;;;;5100195;28;20507;-81
2022/11/16 11:47:23;;;;;;;10.73;6.05;;;;;;;;;;5102037;28;20051;-80
2022/11/16 11:50:19;;;;;;;11.88;6.63;;;;;;;;;;5103385;28;20054;-80
2022/11/16 11:52:46;;;;;;;12.07;6.72;;;;;;;;;;5049521;28;20241;-78
2022/11/16 11:55:14;;;;;;;11.93;6.57;;;;;;;;;;5058105;28;20116;-80
2022/11/16 11:57:42;;;;;;;15.13;7.82;;;;;;;;;;5062306;28;20069;-81
2022/11/16 12:00:12;;;;;;;21.00;10.57;;;;;;;;;;5051478;28;20124;-82
2022/11/16 12:02:58;;;;;;;18.88;9.02;;;;;;;;;;5034806;28;20056;-80
2022/11/16 12:05:24;;;;;;;10.90;6.60;;;;;;;;;;5067252;28;20056;-82
2022/11/16 12:07:51;;;;;;;12.77;7.20;;;;;;;;;;5053678;28;20258;-81
2022/11/16 12:10:26;;;;;;;13.48;6.93;;;;;;;;;;5048305;28;20057;-80
2022/11/16 12:12:52;;;;;;;;;;;;;;;;;;5038980;28;20058;-82
2022/11/16 12:15:19;;;;;;;;;;;;;;;;;;5043361;28;20023;-80
2022/11/16 12:18:05;;;;;;;12.18;6.18;;;;;;;;;;5042360;28;19924;-81
2022/11/16 12:20:32;;;;;;;10.45;6.50;;;;;;;;;;5051144;28;20460;-81
2022/11/16 12:23:17;;;;;;;12.25;6.72;;;;;;;;;;5054818;28;20049;-79
2022/11/16 12:26:01;;;;;;;13.90;7.45;;;;;;;;;;5037732;28;20068;-81
2022/11/16 12:28:46;;;;;;;11.55;6.50;;;;;;;;;;5044582;28;20072;-82
2022/11/16 12:31:42;;;;;;;12.88;6.30;;;;;;;;;;5057542;28;20111;-82
2022/11/16 12:34:09;;;;;;;12.45;6.28;;;;;;;;;;5042520;28;20055;-81
2022/11/16 12:36:38;;;;;;;12.30;7.40;;;;;;;;;;5060408;28;20057;-81
2022/11/16 12:39:18;;;;;;;10.57;6.10;;;;;;;;;;5058940;28;20055;-82
2022/11/16 12:41:56;;;;;;;11.32;6.05;;;;;;;;;;5060407;28;20045;-83
2022/11/16 12:44:32;;;;;;;12.73;6.30;;;;;;;;;;5055918;28;20536;-80
2022/11/16 12:46:59;;;;;;;13.20;5.90;;;;;;;;;;5059434;28;20045;-82
2022/11/16 12:49:44;;;;;;;9.98;4.97;;;;;;;;;;5062789;28;20108;-79
2022/11/16 12:52:29;;;;;;;10.48;5.43;;;;;;;;;;5060851;28;20045;-81
2022/11/16 12:54:58;;;;;;;9.93;5.40;;;;;;;;;;5046904;28;20081;-79
2022/11/16 12:57:53;;;;;;;11.65;5.10;;;;;;;;;;5063360;28;20044;-80
2022/11/16 13:00:19;;;;;;;9.60;5.30;;;;;;;;;;5070820;28;20068;-81
2022/11/16 13:02:46;;;;;;;10.70;5.60;;;;;;;;;;5067330;28;20052;-82
2022/11/16 13:05:16;;;;;;;11.43;5.55;;;;;;;;;;5061028;28;20044;-83
2022/11/16 13:07:43;;;;;;;16.02;6.85;;;;;;;;;;5062558;28;20052;-82
2022/11/16 13:10:20;;;;;;;11.07;5.47;;;;;;;;;;5061077;28;20068;-80
2022/11/16 13:12:48;;;;;;;10.00;5.50;;;;;;;;;;5059138;28;20460;-80
2022/11/16 13:15:31;;;;;;;10.57;5.50;;;;;;;;;;5054561;28;20048;-81
2022/11/16 13:18:00;;;;;;;14.18;5.93;;;;;;;;;;5047086;28;20105;-80
2022/11/16 13:20:30;;;;;;;12.13;5.72;;;;;;;;;;5070177;28;20445;-79
2022/11/16 13:22:59;;;;;;;11.73;5.90;;;;;;;;;;5047335;28;20061;-80
2022/11/16 13:25:30;;;;;;;10.32;5.72;;;;;;;;;;5052097;28;20049;-79
2022/11/16 13:28:10;;;;;;;12.70;5.68;;;;;;;;;;5036755;28;20064;-79
2022/11/16 13:30:49;;;;;;;10.15;5.63;;;;;;;;;;5045361;28;20704;-81
2022/11/16 13:33:34;;;;;;;13.90;6.93;;;;;;;;;;5054506;28;20059;-80
2022/11/16 13:36:20;;;;;;;12.05;6.65;;;;;;;;;;5056929;28;20149;-80
2022/11/16 13:38:53;;;;;;;13.50;6.75;;;;;;;;;;5055563;28;20053;-77
2022/11/16 13:41:27;;;;;;;14.07;7.10;;;;;;;;;;5052014;28;20512;-79
2022/11/16 13:43:53;;;;;;;12.30;6.53;;;;;;;;;;5052512;28;20044;-81
2022/11/16 13:46:20;;;;;;;12.88;6.60;;;;;;;;;;5049084;28;20049;-82
2022/11/16 13:49:18;;;;;;;14.88;6.90;;;;;;;;;;5054684;28;20053;-82
2022/11/16 13:52:03;;;;;;;14.68;7.35;;;;;;;;;;5053655;28;20072;-79
2022/11/16 13:54:50;;;;;;;13.93;7.30;;;;;;;;;;5053476;28;20083;-80
2022/11/16 13:57:23;;;;;;;15.93;7.57;;;;;;;;;;5051863;28;20052;-82
2022/11/16 13:59:59;;;;;;;13.60;7.45;;;;;;;;;;5048435;28;20041;-80
2022/11/16 14:02:25;;;;;;;;;;;;;;;;;;5057245;28;20057;-78
2022/11/16 14:04:55;;;;;;;10.93;6.93;;;;;;;;;;5054081;28;19925;-80
2022/11/16 14:07:26;;;;;;;13.40;7.70;;;;;;;;;;5058511;28;20121;-80
2022/11/16 14:09:53;;;;;;;18.17;8.75;;;;;;;;;;5055878;28;20056;-79
2022/11/16 14:12:38;;;;;;;15.38;7.65;;;;;;;;;;5056216;28;20127;-79
2022/11/16 14:15:15;;;;;;;15.65;8.80;;;;;;;;;;5057643;28;20083;-80
2022/11/16 14:18:01;;;;;;;20.50;8.13;;;;;;;;;;5054433;28;20143;-79
2022/11/16 14:20:36;;;;;;;14.35;8.13;;;;;;;;;;5054494;28;20048;-80
2022/11/16 14:23:22;;;;;;;13.65;6.88;;;;;;;;;;5053517;28;20045;-79
2022/11/16 14:25:57;;;;;;;17.47;8.20;;;;;;;;;;5043020;28;20045;-80
2022/11/16 14:28:24;;;;;;;;;;;;;;;;;;5047262;28;20811;-78
2022/11/16 14:31:14;;;;;;;16.67;8.18;;;;;;;;;;5045622;28;20087;-82
2022/11/16 14:33:41;;;;;;;17.30;7.90;;;;;;;;;;5052592;28;20143;-79
2022/11/16 14:36:08;;;;;;;14.90;8.50;;;;;;;;;;5055533;28;20045;-81
2022/11/16 14:38:39;;;;;;;16.63;8.18;;;;;;;;;;5055282;28;20041;-79
2022/11/16 14:41:10;;;;;;;16.45;8.18;;;;;;;;;;5056078;28;20049;-81
2022/11/16 14:43:41;;;;;;;15.02;7.80;;;;;;;;;;5054167;28;20490;-80
2022/11/16 14:46:14;;;;;;;17.02;8.55;;;;;;;;;;5055580;28;20120;-79
2022/11/16 14:48:42;;;;;;;18.15;8.32;;;;;;;;;;5056228;28;20132;-80
2022/11/16 14:51:12;;;;;;;15.10;7.85;;;;;;;;;;5056126;28;20140;-81
2022/11/16 14:53:40;;;;;;;17.63;8.02;;;;;;;;;;5056666;28;20063;-81
2022/11/16 14:56:14;;;;;;;16.90;7.68;;;;;;;;;;5052836;28;20049;-81
2022/11/16 14:58:51;;;;;;;14.82;7.78;;;;;;;;;;5057044;28;20115;-81
2022/11/16 15:01:19;;;;;;;14.43;7.55;;;;;;;;;;5058156;28;20044;-82
2022/11/16 15:03:48;;;;;;;15.63;8.23;;;;;;;;;;5052966;28;20191;-79
2022/11/16 15:06:15;;;;;;;15.77;8.50;;;;;;;;;;5055740;28;20041;-79
2022/11/16 15:08:43;;;;;;;15.43;8.40;;;;;;;;;;5056892;28;20092;-81
2022/11/16 15:11:19;;;;;;;17.30;8.50;;;;;;;;;;5058210;28;20519;-78
2022/11/16 15:13:46;;;;;;;17.60;8.40;;;;;;;;;;5056387;28;20056;-81
2022/11/16 15:16:19;;;;;;;14.20;8.38;;;;;;;;;;5057135;28;20112;-81
2022/11/16 15:18:56;;;;;;;19.63;8.63;;;;;;;;;;5050431;28;20053;-78
2022/11/16 15:21:23;;;;;;;17.02;8.55;;;;;;;;;;5037295;28;20284;-80
2022/11/16 15:23:49;;;;;;;16.80;8.35;;;;;;;;;;5035522;28;20064;-81
2022/11/16 15:26:37;;;;;;;18.67;9.05;;;;;;;;;;5038235;28;20053;-80
2022/11/16 15:29:03;;;;;;;17.42;8.88;;;;;;;;;;5051809;28;20077;-81
2022/11/16 15:31:29;;;;;;;17.17;8.80;;;;;;;;;;5046043;28;20113;-80
2022/11/16 15:33:56;;;;;;;15.48;8.70;;;;;;;;;;5031600;28;20140;-79
2022/11/16 15:36:24;;;;;;;17.00;8.88;;;;;;;;;;5034748;28;20514;-81
2022/11/16 15:38:55;;;;;;;17.75;9.55;;;;;;;;;;5032598;28;20140;-81